createdAt,value
2017-10-24T14:02:26.450Z,68.37
2017-10-24T14:05:04.693Z,67.03
2017-10-24T14:09:44.034Z,64.23
2017-10-24T14:12:18.193Z,65.00
2017-10-24T14:14:52.623Z,60.20
2017-10-24T14:17:24.448Z,61.37
2017-10-24T14:19:55.510Z,61.00
2017-10-24T14:22:28.618Z,60.30
2017-10-24T14:25:00.585Z,61.57
2017-10-24T14:30:20.055Z,65.27
2017-10-24T14:32:52.905Z,59.23
2017-10-24T14:35:25.374Z,59.97
2017-10-24T14:37:57.662Z,65.30
2017-10-24T14:40:35.241Z,77.93
2017-10-24T14:43:07.745Z,88.00
2017-10-24T14:49:13.229Z,65.07
2017-10-24T14:51:43.827Z,87.87
2017-10-24T14:54:15.770Z,90.90
2017-10-24T14:56:47.261Z,76.10
2017-10-24T14:59:16.037Z,72.73
2017-10-24T15:01:46.107Z,67.23
2017-10-24T15:04:16.876Z,78.97
2017-10-24T15:06:46.425Z,72.23
2017-10-24T15:09:16.362Z,75.70
2017-10-24T15:11:45.173Z,78.33
2017-10-24T15:14:17.073Z,74.40
2017-10-24T15:16:45.895Z,67.40
2017-10-24T15:19:14.604Z,68.83
2017-10-24T15:21:45.625Z,72.93
2017-10-24T15:24:16.711Z,77.03
2017-10-24T15:26:47.340Z,82.27
2017-10-24T15:29:16.116Z,78.63
2017-10-24T15:31:47.216Z,74.50
2017-10-24T15:34:19.053Z,72.90
2017-10-24T15:36:47.830Z,79.57
2017-10-24T15:39:22.037Z,73.47
2017-10-24T15:41:51.800Z,77.40
2017-10-24T15:44:23.192Z,79.60
2017-10-24T15:46:53.937Z,69.23
2017-10-24T15:52:57.796Z,59.97
2017-10-24T15:55:27.428Z,63.97
2017-10-24T15:57:58.061Z,50.67
2017-10-24T16:00:27.828Z,55.30
2017-10-24T16:02:57.872Z,46.07
2017-10-24T16:05:27.836Z,39.13
2017-10-24T16:07:57.653Z,50.60
2017-10-24T16:10:26.936Z,58.17
2017-10-24T16:12:59.280Z,46.17
2017-10-24T16:15:28.924Z,63.30
2017-10-24T22:19:48.217Z,101.40
2017-10-24T22:22:17.164Z,93.70
2017-10-24T22:24:46.349Z,83.43
2017-10-24T22:27:15.260Z,76.17
2017-10-24T22:29:44.206Z,96.50
2017-10-24T22:32:14.172Z,94.57
2017-10-24T22:34:43.312Z,95.67
2017-10-24T22:37:13.172Z,79.70
2017-10-24T22:39:43.565Z,86.90
2017-10-24T22:42:13.213Z,89.03
2017-10-24T22:44:42.148Z,80.10
2017-10-24T22:47:12.270Z,83.07
2017-10-24T22:49:42.289Z,80.47
2017-10-24T22:54:50.559Z,73.47
2017-10-24T22:57:20.234Z,69.93
2017-10-24T22:59:50.209Z,80.60
2017-10-24T23:02:19.241Z,68.77
2017-10-24T23:04:52.542Z,77.63
2017-10-24T23:07:25.114Z,86.67
2017-10-24T23:09:56.011Z,84.70
2017-10-24T23:12:26.869Z,65.40
2017-10-24T23:14:57.772Z,62.97
2017-10-24T23:17:26.757Z,68.63
2017-10-24T23:19:57.828Z,63.63
2017-10-24T23:22:27.790Z,61.37
2017-10-24T23:24:57.152Z,51.90
2017-10-24T23:27:26.841Z,71.10
2017-10-24T23:29:55.717Z,72.87
2017-10-24T23:32:24.643Z,76.17
2017-10-24T23:34:54.409Z,64.30
2017-10-24T23:37:24.384Z,78.73
2017-10-24T23:39:53.292Z,63.53
2017-10-24T23:42:22.444Z,64.07
2017-10-24T23:44:52.097Z,61.23
2017-10-24T23:47:21.067Z,56.77
2017-10-24T23:49:50.937Z,57.50
2017-10-24T23:52:20.429Z,56.77
2017-10-24T23:54:49.852Z,59.23
2017-10-24T23:57:19.500Z,56.57
2017-10-24T23:59:48.372Z,59.87
